Time;durP1;ratioP1;P1;durP2;ratioP2;P2;SDS_P1;SDS_P2;PMS_P1;PMS_P2;Temp;Humidity;BMP_temperature;BMP_pressure;BME280_temperature;BME280_humidity;BME280_pressure;Samples;Min_cycle;Max_cycle;Signal;HPM_P1;HPM_P2
2021/09/09 00:01:47;;;;;;;101.10;45.78;;;;;;;16.30;87.42;100508.09;5087149;28;20392;-68
2021/09/09 00:04:13;;;;;;;112.63;48.70;;;;;;;16.31;87.41;100509.78;5086652;28;20028;-69
2021/09/09 00:06:39;;;;;;;112.95;48.33;;;;;;;16.31;87.50;100504.56;5087089;28;20020;-68
2021/09/09 00:09:05;;;;;;;108.22;48.55;;;;;;;16.30;87.71;100504.59;5086936;28;20020;-69
2021/09/09 00:11:31;;;;;;;103.97;49.40;;;;;;;16.32;87.70;100503.66;5087084;28;20020;-68
2021/09/09 00:13:56;;;;;;;106.65;47.20;;;;;;;16.38;87.51;100509.59;5086855;28;20024;-69
2021/09/09 00:16:22;;;;;;;106.30;49.58;;;;;;;16.42;87.31;100513.88;5087078;28;20024;-69
2021/09/09 00:18:47;;;;;;;115.18;52.13;;;;;;;16.44;87.45;100506.78;5068868;28;20024;-68
2021/09/09 00:21:13;;;;;;;101.35;47.80;;;;;;;16.49;87.13;100502.28;5086723;28;20044;-68
2021/09/09 00:23:38;;;;;;;98.43;46.67;;;;;;;16.51;86.96;100500.47;5086659;28;20028;-68
2021/09/09 00:26:04;;;;;;;100.72;48.88;;;;;;;16.52;86.97;100507.41;5086816;28;20025;-69
2021/09/09 00:28:30;;;;;;;105.20;47.50;;;;;;;16.52;86.60;100499.53;5086692;28;20025;-68
2021/09/09 00:30:56;;;;;;;104.45;48.83;;;;;;;16.54;86.53;100502.13;5086619;28;20052;-67
2021/09/09 00:33:22;;;;;;;100.05;46.08;;;;;;;16.52;86.46;100504.78;5086665;28;20020;-67
2021/09/09 00:35:47;;;;;;;104.85;47.25;;;;;;;16.48;86.29;100495.31;5086558;28;20029;-68
2021/09/09 00:38:13;;;;;;;101.88;49.47;;;;;;;16.44;86.34;100491.06;5086400;28;20123;-67
2021/09/09 00:40:38;;;;;;;99.65;45.80;;;;;;;16.34;86.45;100491.38;5086333;28;20020;-68
2021/09/09 00:43:04;;;;;;;108.40;45.78;;;;;;;16.32;86.61;100494.94;5086346;28;20029;-68
2021/09/09 00:45:29;;;;;;;108.63;49.50;;;;;;;16.27;86.68;100500.34;5086372;28;20032;-68
2021/09/09 00:47:55;;;;;;;105.10;47.35;;;;;;;16.23;86.83;100493.44;5086253;28;20065;-67
2021/09/09 00:50:21;;;;;;;96.10;47.20;;;;;;;16.20;86.47;100493.56;5086240;28;20154;-67
2021/09/09 00:52:49;;;;;;;90.70;44.97;;;;;;;16.17;86.20;100491.88;5086098;28;20422;-68
2021/09/09 00:55:15;;;;;;;79.57;45.15;;;;;;;16.14;85.70;100498.97;5086200;28;20027;-68
2021/09/09 00:57:40;;;;;;;79.45;43.00;;;;;;;16.09;85.78;100497.38;5086146;28;20035;-68
2021/09/09 01:00:08;;;;;;;83.40;44.28;;;;;;;16.08;85.14;100503.53;5085871;28;20020;-68
2021/09/09 01:02:33;;;;;;;81.00;42.50;;;;;;;16.05;85.26;100503.63;5068188;28;20036;-67
2021/09/09 01:04:59;;;;;;;85.38;43.05;;;;;;;16.02;85.00;100500.22;5085967;28;20082;-68
2021/09/09 01:07:25;;;;;;;87.75;44.28;;;;;;;15.97;84.81;100493.34;5086080;28;20024;-68
2021/09/09 01:09:52;;;;;;;81.28;42.38;;;;;;;15.94;84.88;100493.41;5085822;28;20017;-68
2021/09/09 01:12:18;;;;;;;81.95;44.38;;;;;;;15.89;85.07;100507.53;5085666;28;20040;-67
2021/09/09 01:14:43;;;;;;;84.15;45.30;;;;;;;15.88;85.09;100492.75;5085983;28;20031;-68
2021/09/09 01:17:09;;;;;;;82.93;45.67;;;;;;;15.84;84.94;100491.97;5085102;28;20028;-68
2021/09/09 01:19:34;;;;;;;82.57;44.67;;;;;;;15.81;84.81;100492.94;5085389;28;20046;-67
2021/09/09 01:22:00;;;;;;;87.97;47.17;;;;;;;15.80;84.82;100495.59;5085601;28;20032;-67
2021/09/09 01:24:25;;;;;;;86.93;46.72;;;;;;;15.72;84.23;100490.53;5085478;28;20021;-67
2021/09/09 01:26:59;;;;;;;92.07;50.13;;;;;;;15.74;84.58;100501.84;5085757;28;20016;-68
2021/09/09 01:29:30;;;;;;;98.57;49.47;;;;;;;15.72;84.52;100496.66;5085272;28;20039;-67
2021/09/09 01:31:55;;;;;;;89.17;48.63;;;;;;;15.67;84.31;100500.31;5085670;28;20032;-67
2021/09/09 01:34:22;;;;;;;86.85;49.60;;;;;;;15.61;84.27;100486.50;5085653;28;20028;-67
2021/09/09 01:36:48;;;;;;;93.10;52.45;;;;;;;15.58;84.36;100490.94;5085672;28;20034;-68
2021/09/09 01:39:14;;;;;;;99.80;53.47;;;;;;;15.57;84.21;100495.34;5085272;28;20056;-67
2021/09/09 01:41:39;;;;;;;94.65;53.83;;;;;;;15.54;84.08;100492.81;5085675;28;20028;-67
2021/09/09 01:44:05;;;;;;;99.70;53.10;;;;;;;15.50;84.19;100488.53;5085514;28;20028;-68
2021/09/09 01:46:30;;;;;;;95.95;55.28;;;;;;;15.49;83.83;100490.28;5085532;28;20430;-68
2021/09/09 01:48:56;;;;;;;106.07;55.25;;;;;;;15.48;84.11;100487.72;5085290;28;20110;-68
2021/09/09 01:51:24;;;;;;;98.18;54.72;;;;;;;15.45;83.90;100487.81;5085548;28;20051;-68
2021/09/09 01:53:49;;;;;;;100.53;55.70;;;;;;;15.42;84.30;100487.91;5085335;28;20103;-68
2021/09/09 01:56:15;;;;;;;106.68;56.22;;;;;;;15.41;84.14;100491.41;5085259;28;20028;-69
2021/09/09 01:58:41;;;;;;;114.65;59.17;;;;;;;15.40;84.41;100492.34;5085338;28;20047;-68
2021/09/09 02:01:08;;;;;;;107.68;57.90;;;;;;;15.39;84.28;100487.97;5085283;28;20354;-68
2021/09/09 02:03:33;;;;;;;110.50;59.67;;;;;;;15.37;84.13;100480.16;5085248;28;20028;-67
2021/09/09 02:05:58;;;;;;;111.22;59.40;;;;;;;15.36;83.96;100486.31;5085273;28;20116;-68
2021/09/09 02:08:24;;;;;;;106.68;58.28;;;;;;;15.31;84.17;100478.59;5085176;28;20024;-68
2021/09/09 02:10:49;;;;;;;117.60;61.63;;;;;;;15.32;83.83;100479.47;5085317;28;20016;-67
2021/09/09 02:13:15;;;;;;;106.05;59.22;;;;;;;15.32;83.97;100475.06;5085322;28;20455;-68
2021/09/09 02:15:42;;;;;;;110.30;56.67;;;;;;;15.30;83.93;100470.78;5085367;28;20473;-67
2021/09/09 02:18:07;;;;;;;109.45;61.13;;;;;;;15.29;83.93;100469.94;5066996;28;20044;-67
2021/09/09 02:20:33;;;;;;;116.20;59.17;;;;;;;15.29;83.87;100476.94;5084940;28;20048;-67
2021/09/09 02:22:58;;;;;;;104.88;57.63;;;;;;;15.29;83.59;100469.09;5084872;28;20017;-66
2021/09/09 02:25:23;;;;;;;101.78;57.40;;;;;;;15.26;83.62;100472.63;5085063;28;20017;-67
2021/09/09 02:27:49;;;;;;;102.65;57.83;;;;;;;15.25;83.29;100468.31;5086578;28;20483;-68
2021/09/09 02:30:14;;;;;;;113.32;61.13;;;;;;;15.22;83.64;100466.59;5088951;28;20043;-67
2021/09/09 02:32:40;;;;;;;100.63;54.55;;;;;;;15.19;83.40;100458.00;5088937;28;20108;-68
2021/09/09 02:35:06;;;;;;;106.88;54.33;;;;;;;15.21;83.28;100461.41;5088856;28;20055;-67
2021/09/09 02:37:31;;;;;;;100.55;55.95;;;;;;;15.11;83.10;100451.22;5088874;28;20031;-67
2021/09/09 02:39:57;;;;;;;98.18;54.70;;;;;;;15.19;82.99;100458.84;5088603;28;20032;-68
2021/09/09 02:42:22;;;;;;;104.30;55.50;;;;;;;15.20;83.01;100457.09;5088409;28;20027;-67
2021/09/09 02:44:48;;;;;;;97.45;55.88;;;;;;;15.20;82.67;100457.97;5088546;28;20024;-67
2021/09/09 02:47:14;;;;;;;99.53;57.05;;;;;;;15.20;82.51;100451.88;5088553;28;20047;-67
2021/09/09 02:49:39;;;;;;;98.57;55.05;;;;;;;15.20;82.34;100454.47;5088635;28;20072;-67
2021/09/09 02:52:05;;;;;;;105.25;56.50;;;;;;;15.19;82.27;100456.22;5088584;28;20052;-67
2021/09/09 02:54:30;;;;;;;102.25;55.83;;;;;;;15.19;82.51;100452.78;5070363;28;20024;-67
2021/09/09 02:56:56;;;;;;;104.05;57.20;;;;;;;15.17;81.92;100450.22;5088509;28;20472;-67
2021/09/09 02:59:21;;;;;;;105.38;56.42;;;;;;;15.19;81.96;100450.16;5088362;28;20027;-66
2021/09/09 03:01:47;;;;;;;105.07;55.58;;;;;;;15.20;81.96;100450.13;5088289;28;20021;-66
2021/09/09 03:04:12;;;;;;;93.85;55.05;;;;;;;15.22;81.87;100452.69;5088192;28;20028;-66
2021/09/09 03:06:37;;;;;;;108.05;55.72;;;;;;;15.18;81.77;100440.59;5088229;28;20024;-67
2021/09/09 03:09:03;;;;;;;100.25;55.03;;;;;;;15.19;81.72;100445.78;5088062;28;20028;-66
2021/09/09 03:11:28;;;;;;;102.97;52.05;;;;;;;15.20;81.66;100442.28;5088276;28;20029;-66
2021/09/09 03:13:54;;;;;;;114.00;57.70;;;;;;;15.20;81.74;100441.41;5088376;28;20073;-66
2021/09/09 03:16:19;;;;;;;101.28;56.35;;;;;;;15.21;81.89;100440.50;5088026;28;20020;-67
2021/09/09 03:18:45;;;;;;;104.43;57.40;;;;;;;15.22;81.86;100442.22;5088078;28;20055;-66
2021/09/09 03:21:10;;;;;;;109.13;58.90;;;;;;;15.22;81.70;100439.63;5087546;28;20064;-66
2021/09/09 03:23:36;;;;;;;105.90;55.70;;;;;;;15.22;81.37;100440.47;5087635;28;20052;-66
2021/09/09 03:26:01;;;;;;;96.63;55.85;;;;;;;15.22;81.29;100443.06;5087874;28;20052;-66
2021/09/09 03:28:26;;;;;;;108.65;57.03;;;;;;;15.22;81.10;100434.38;5087742;28;20059;-67
2021/09/09 03:30:52;;;;;;;106.60;56.92;;;;;;;15.24;81.09;100427.34;5087853;28;20024;-66
2021/09/09 03:33:17;;;;;;;109.35;57.50;;;;;;;15.26;81.08;100432.53;5087882;28;20021;-67
2021/09/09 03:35:43;;;;;;;102.50;57.55;;;;;;;15.25;81.13;100431.69;5087713;28;20032;-67
2021/09/09 03:38:09;;;;;;;102.57;57.00;;;;;;;15.27;81.15;100429.03;5087578;28;20104;-67
2021/09/09 03:40:35;;;;;;;107.72;58.72;;;;;;;15.28;81.38;100423.75;5086727;28;20028;-67
2021/09/09 03:43:01;;;;;;;104.10;59.15;;;;;;;15.28;81.21;100428.13;5087680;28;20056;-67
2021/09/09 03:45:26;;;;;;;110.30;57.63;;;;;;;15.28;81.38;100417.66;5087637;28;20063;-67
2021/09/09 03:47:52;;;;;;;113.55;60.20;;;;;;;15.30;81.62;100432.44;5087640;28;20025;-67
2021/09/09 03:50:17;;;;;;;108.78;58.90;;;;;;;15.28;81.28;100418.53;5087298;28;20035;-66
2021/09/09 03:52:43;;;;;;;113.50;61.10;;;;;;;15.34;81.56;100426.19;5087413;28;20021;-69
2021/09/09 03:55:09;;;;;;;114.43;60.35;;;;;;;15.38;81.74;100415.66;5087270;28;20029;-66
2021/09/09 03:57:34;;;;;;;121.72;62.33;;;;;;;15.38;81.71;100421.75;5087450;28;20024;-67
2021/09/09 03:59:59;;;;;;;114.63;61.22;;;;;;;15.41;81.87;100410.31;5087527;28;20040;-67
2021/09/09 04:02:25;;;;;;;122.38;63.30;;;;;;;15.47;81.63;100424.09;5087084;28;20107;-67
2021/09/09 04:04:50;;;;;;;114.97;64.70;;;;;;;15.52;81.89;100416.13;5069586;28;20023;-67
2021/09/09 04:07:16;;;;;;;119.93;62.88;;;;;;;15.54;81.62;100419.56;5087302;28;20528;-67
2021/09/09 04:09:41;;;;;;;113.32;60.72;;;;;;;15.58;81.94;100410.69;5086838;28;20031;-68
2021/09/09 04:12:06;;;;;;;113.00;60.15;;;;;;;15.63;81.88;100420.16;5086976;28;20025;-68
2021/09/09 04:14:33;;;;;;;113.70;57.58;;;;;;;15.69;81.80;100415.59;5086812;28;20025;-68
2021/09/09 04:16:59;;;;;;;92.18;55.17;;;;;;;15.76;81.58;100421.53;5086946;28;20039;-68
2021/09/09 04:19:24;;;;;;;95.63;52.13;;;;;;;15.76;81.48;100411.06;5086723;28;20020;-68
2021/09/09 04:21:51;;;;;;;107.10;56.10;;;;;;;15.84;81.50;100414.31;5086950;28;20475;-68
2021/09/09 04:24:17;;;;;;;99.97;51.58;;;;;;;15.89;81.07;100416.78;5086451;28;20032;-68
2021/09/09 04:26:43;;;;;;;106.50;58.22;;;;;;;15.92;81.24;100423.66;5069215;28;20024;-68
2021/09/09 04:29:08;;;;;;;97.75;56.92;;;;;;;15.92;81.00;100421.91;5068914;28;20099;-68
2021/09/09 04:31:34;;;;;;;101.88;58.40;;;;;;;15.92;80.85;100421.91;5086573;28;20021;-69
2021/09/09 04:34:02;;;;;;;102.80;56.38;;;;;;;15.86;80.73;100415.09;5086813;28;20021;-67
2021/09/09 04:36:29;;;;;;;94.55;56.03;;;;;;;15.90;80.73;100428.09;5086570;28;20031;-67
2021/09/09 04:38:55;;;;;;;95.55;54.63;;;;;;;15.76;80.86;100394.47;5086747;28;20027;-68
2021/09/09 04:41:20;;;;;;;90.95;51.90;;;;;;;15.86;81.05;100416.88;5086564;28;20021;-65
2021/09/09 04:43:46;;;;;;;95.45;53.60;;;;;;;15.86;80.61;100412.47;5086363;28;20025;-63
2021/09/09 04:46:14;;;;;;;94.03;55.00;;;;;;;15.89;80.61;100411.53;5086444;28;20032;-64
2021/09/09 04:48:42;;;;;;;89.93;53.28;;;;;;;15.85;80.77;100416.00;5086338;28;20091;-62
2021/09/09 04:51:08;;;;;;;95.47;53.95;;;;;;;15.89;80.70;100410.69;5085814;28;20033;-63
2021/09/09 04:53:34;;;;;;;90.40;52.33;;;;;;;15.92;80.53;100411.44;5086049;28;20024;-64
2021/09/09 04:56:02;;;;;;;82.65;48.72;;;;;;;15.92;80.94;100406.22;5086430;28;20025;-64
2021/09/09 04:58:28;;;;;;;90.78;52.58;;;;;;;15.96;80.82;100399.97;5086168;28;20021;-64
2021/09/09 05:00:56;;;;;;;92.70;53.85;;;;;;;16.03;80.60;100402.41;5085904;28;20031;-64
2021/09/09 05:03:22;;;;;;;92.30;51.47;;;;;;;16.07;80.63;100404.88;5101754;28;20047;-64
2021/09/09 05:05:47;;;;;;;87.10;51.35;;;;;;;16.12;80.39;100402.13;5068108;28;20024;-64
2021/09/09 05:08:13;;;;;;;97.72;53.97;;;;;;;16.10;80.78;100404.78;5085833;28;20024;-63
2021/09/09 05:10:40;;;;;;;89.32;50.38;;;;;;;16.15;80.92;100402.03;5067723;28;20020;-63
2021/09/09 05:13:05;;;;;;;93.80;53.42;;;;;;;16.15;80.98;100406.44;5067783;28;20479;-63
2021/09/09 05:15:31;;;;;;;91.10;51.75;;;;;;;16.19;81.13;100402.78;5085765;28;20025;-64
2021/09/09 05:17:57;;;;;;;102.32;55.95;;;;;;;16.19;81.24;100400.19;5086003;28;20021;-64
2021/09/09 05:20:23;;;;;;;91.35;50.65;;;;;;;16.26;81.52;100404.31;5085556;28;20036;-64
2021/09/09 05:22:48;;;;;;;92.97;52.25;;;;;;;16.35;81.99;100406.66;5085834;28;20035;-63
2021/09/09 05:25:17;;;;;;;88.32;49.53;;;;;;;16.52;81.88;100405.22;5085774;28;20595;-63
2021/09/09 05:27:43;;;;;;;78.50;47.28;;;;;;;16.71;81.94;100404.59;5085868;28;20024;-63
2021/09/09 05:30:10;;;;;;;78.35;45.63;;;;;;;16.93;81.96;100399.44;5085686;28;20044;-64
2021/09/09 05:32:35;;;;;;;80.43;44.92;;;;;;;17.19;81.35;100400.31;5085521;28;20139;-63
2021/09/09 05:35:01;;;;;;;70.28;42.42;;;;;;;17.40;80.42;100391.72;5085841;28;20020;-64
2021/09/09 05:37:27;;;;;;;74.15;42.10;;;;;;;17.66;79.71;100396.00;5085801;28;20083;-64
2021/09/09 05:39:52;;;;;;;71.95;42.88;;;;;;;17.88;78.83;100396.91;5085226;28;20020;-63
2021/09/09 05:42:19;;;;;;;66.53;42.05;;;;;;;18.11;77.90;100400.41;5067432;28;20020;-64
2021/09/09 05:44:44;;;;;;;70.72;41.10;;;;;;;18.32;77.44;100396.91;5067640;28;20028;-64
2021/09/09 05:47:10;;;;;;;65.70;40.78;;;;;;;18.45;76.21;100401.69;5085569;28;20054;-64
2021/09/09 05:49:36;;;;;;;64.57;38.97;;;;;;;18.62;76.04;100403.59;5067184;28;20510;-64
2021/09/09 05:52:03;;;;;;;60.00;38.72;;;;;;;18.93;75.68;100396.19;5085695;28;20024;-64
2021/09/09 05:54:30;;;;;;;58.17;36.28;;;;;;;19.28;74.03;100403.44;5085464;28;20028;-64
2021/09/09 05:56:56;;;;;;;66.95;39.17;;;;;;;19.53;72.93;100391.78;5085538;28;20043;-64
2021/09/09 05:59:21;;;;;;;59.22;35.28;;;;;;;19.84;71.86;100402.66;5085482;28;20025;-64
2021/09/09 06:01:49;;;;;;;58.30;35.28;;;;;;;20.18;70.70;100401.06;5085475;28;20028;-64
2021/09/09 06:04:14;;;;;;;52.08;34.30;;;;;;;20.35;68.79;100402.00;5089466;28;20025;-64
2021/09/09 06:06:40;;;;;;;50.08;34.30;;;;;;;20.45;68.72;100391.88;5089479;28;20024;-65
2021/09/09 06:09:05;;;;;;;47.85;32.92;;;;;;;20.74;68.64;100395.63;5089244;28;20028;-63
2021/09/09 06:11:31;;;;;;;58.10;36.35;;;;;;;21.05;67.49;100394.06;5089421;28;20088;-64
2021/09/09 06:13:56;;;;;;;49.55;32.83;;;;;;;21.26;65.72;100398.28;5089363;28;20031;-63
2021/09/09 06:16:22;;;;;;;52.63;32.30;;;;;;;21.48;65.85;100392.69;5089387;28;20027;-64
2021/09/09 06:18:47;;;;;;;50.45;31.95;;;;;;;21.84;64.62;100401.31;5089217;28;20020;-65
2021/09/09 06:21:12;;;;;;;52.35;31.73;;;;;;;22.09;63.22;100402.59;5089075;28;20053;-65
2021/09/09 06:23:38;;;;;;;45.28;31.98;;;;;;;22.35;62.88;100397.56;5088985;28;20024;-64
2021/09/09 06:26:03;;;;;;;44.65;31.15;;;;;;;22.60;61.00;100396.16;5089283;28;20051;-64
2021/09/09 06:28:29;;;;;;;47.72;31.92;;;;;;;22.81;60.75;100400.25;5089008;28;20028;-64
2021/09/09 06:30:54;;;;;;;47.15;32.17;;;;;;;22.96;60.00;100401.97;5088983;28;20046;-65
2021/09/09 06:33:19;;;;;;;47.22;31.08;;;;;;;23.05;59.60;100395.28;5089196;28;20040;-63
2021/09/09 06:35:46;;;;;;;41.85;29.65;;;;;;;23.19;59.10;100399.72;5088754;28;20213;-64
2021/09/09 06:38:12;;;;;;;48.03;30.65;;;;;;;23.25;58.71;100394.03;5088447;28;20020;-64
2021/09/09 06:40:38;;;;;;;43.38;29.95;;;;;;;23.17;58.18;100383.06;5070429;28;20546;-64
2021/09/09 06:43:04;;;;;;;49.50;31.33;;;;;;;23.44;58.18;100397.34;5088533;28;20029;-64
2021/09/09 06:45:29;;;;;;;47.70;31.45;;;;;;;23.66;57.50;100396.81;5070469;28;20080;-64
2021/09/09 06:47:55;;;;;;;42.03;29.75;;;;;;;23.91;57.09;100400.56;5088723;28;20035;-63
2021/09/09 06:50:20;;;;;;;45.33;29.80;;;;;;;24.21;55.97;100394.22;5088370;28;20480;-63
2021/09/09 06:52:46;;;;;;;41.05;28.60;;;;;;;24.37;55.06;100399.34;5088290;28;20029;-63
2021/09/09 06:55:12;;;;;;;41.70;29.02;;;;;;;24.58;55.25;100397.97;5070346;28;20214;-64
2021/09/09 06:57:38;;;;;;;42.13;30.77;;;;;;;24.75;53.99;100408.28;5088271;28;20100;-63
2021/09/09 07:00:04;;;;;;;40.72;28.45;;;;;;;24.93;53.72;100400.03;5069990;28;20076;-64
2021/09/09 07:02:29;;;;;;;37.83;27.42;;;;;;;25.12;52.87;100402.25;5088092;28;20159;-64
2021/09/09 07:04:55;;;;;;;39.92;27.40;;;;;;;25.31;52.57;100402.75;5088658;28;20029;-64
2021/09/09 07:07:20;;;;;;;37.97;25.45;;;;;;;25.51;52.65;100401.34;5088604;28;20028;-63
2021/09/09 07:09:46;;;;;;;37.05;27.27;;;;;;;25.77;51.40;100393.28;5070500;28;20036;-63
2021/09/09 07:12:11;;;;;;;34.65;26.05;;;;;;;25.96;50.94;100403.41;5088375;28;20028;-64
2021/09/09 07:14:37;;;;;;;35.47;26.20;;;;;;;26.17;50.36;100405.44;5088143;28;20107;-63
2021/09/09 07:17:03;;;;;;;37.90;27.55;;;;;;;26.24;49.94;100401.38;5088319;28;20020;-63
2021/09/09 07:19:28;;;;;;;38.58;27.48;;;;;;;26.34;48.73;100403.38;5088048;28;20024;-63
2021/09/09 07:21:53;;;;;;;33.95;25.80;;;;;;;26.34;48.99;100400.72;5088153;28;20021;-63
2021/09/09 07:24:20;;;;;;;38.03;26.15;;;;;;;26.43;48.49;100407.13;5087910;28;20032;-63
2021/09/09 07:26:46;;;;;;;40.92;26.52;;;;;;;26.69;48.61;100402.50;5087875;28;20016;-63
2021/09/09 07:29:13;;;;;;;35.22;26.02;;;;;;;26.85;46.92;100410.13;5087923;28;20044;-62
2021/09/09 07:31:43;;;;;;;36.45;25.58;;;;;;;26.83;46.63;100400.56;5087731;28;20537;-63
2021/09/09 07:34:08;;;;;;;32.67;24.40;;;;;;;27.00;47.05;100406.41;5087788;28;20021;-64
2021/09/09 07:36:34;;;;;;;30.90;23.90;;;;;;;27.27;46.55;100407.88;5087841;28;20024;-64
2021/09/09 07:38:59;;;;;;;35.75;25.65;;;;;;;27.40;45.61;100402.38;5087654;28;20025;-63
2021/09/09 07:41:25;;;;;;;35.00;25.40;;;;;;;27.38;44.75;100410.50;5087754;28;20020;-64
2021/09/09 07:43:50;;;;;;;37.67;26.05;;;;;;;27.20;45.17;100411.03;5087750;28;20020;-64
2021/09/09 07:46:16;;;;;;;34.72;25.88;;;;;;;27.08;44.74;100409.31;5087936;28;20028;-64
2021/09/09 07:48:41;;;;;;;33.97;24.92;;;;;;;26.97;45.43;100413.66;5087255;28;20024;-63
2021/09/09 07:51:07;;;;;;;31.80;23.75;;;;;;;26.96;45.53;100403.13;5087675;28;20017;-62
2021/09/09 07:53:32;;;;;;;37.58;23.70;;;;;;;27.09;45.66;100411.84;5087554;28;20031;-64
2021/09/09 07:55:58;;;;;;;31.35;21.92;;;;;;;27.21;45.31;100398.53;5087569;28;20533;-64
2021/09/09 07:58:23;;;;;;;30.20;21.98;;;;;;;27.53;45.37;100418.25;5087488;28;20464;-63
2021/09/09 08:00:49;;;;;;;33.03;23.25;;;;;;;27.80;43.56;100411.66;5087149;28;20024;-63
2021/09/09 08:03:14;;;;;;;27.58;21.42;;;;;;;27.89;43.92;100420.75;5087445;28;20020;-63
2021/09/09 08:05:40;;;;;;;29.38;21.52;;;;;;;28.20;43.71;100424.38;5087294;28;20031;-63
2021/09/09 08:08:06;;;;;;;31.50;22.13;;;;;;;28.39;42.99;100430.88;5087149;28;20021;-64
2021/09/09 08:10:32;;;;;;;27.13;21.15;;;;;;;28.66;42.92;100418.81;5086812;28;20046;-64
2021/09/09 08:12:58;;;;;;;31.17;22.85;;;;;;;28.88;40.91;100433.03;5087206;28;20044;-64
2021/09/09 08:15:25;;;;;;;28.10;22.45;;;;;;;28.69;41.22;100433.75;5087153;28;20028;-64
2021/09/09 08:17:50;;;;;;;30.58;21.58;;;;;;;28.69;41.40;100429.25;5087236;28;20025;-64
2021/09/09 08:20:16;;;;;;;28.77;22.13;;;;;;;28.74;41.28;100423.50;5086536;28;20062;-63
2021/09/09 08:22:42;;;;;;;29.00;21.83;;;;;;;28.90;41.00;100427.53;5086887;28;20024;-63
2021/09/09 08:25:09;;;;;;;28.40;21.05;;;;;;;29.11;40.11;100435.53;5086421;28;20051;-63
2021/09/09 08:27:34;;;;;;;26.90;20.13;;;;;;;29.22;39.90;100431.91;5086754;28;20035;-63
2021/09/09 08:30:00;;;;;;;29.23;21.75;;;;;;;29.47;39.37;100424.41;5086841;28;20024;-63
2021/09/09 08:32:25;;;;;;;28.55;20.88;;;;;;;29.64;39.00;100428.28;5068968;28;20025;-63
2021/09/09 08:34:55;;;;;;;29.33;21.50;;;;;;;29.63;38.74;100429.28;5086710;28;20029;-64
2021/09/09 08:37:21;;;;;;;30.63;21.40;;;;;;;29.71;38.41;100433.06;5086858;28;20024;-64
2021/09/09 08:39:47;;;;;;;32.15;23.92;;;;;;;29.76;38.08;100433.50;5086578;28;20032;-64
2021/09/09 08:42:13;;;;;;;34.40;24.33;;;;;;;29.61;38.34;100435.72;5086697;28;20028;-63
2021/09/09 08:44:38;;;;;;;28.20;21.63;;;;;;;29.42;38.04;100440.88;5086632;28;20029;-65
2021/09/09 08:47:06;;;;;;;28.83;21.63;;;;;;;29.44;38.51;100454.94;5086590;28;20021;-63
2021/09/09 08:49:31;;;;;;;30.60;21.08;;;;;;;29.53;38.31;100445.25;5086551;28;20073;-64
2021/09/09 08:51:58;;;;;;;27.75;20.63;;;;;;;29.75;38.22;100443.34;5086412;28;20446;-63
2021/09/09 08:54:23;;;;;;;28.63;20.50;;;;;;;30.11;37.99;100437.50;5086318;28;20111;-62
2021/09/09 08:56:49;;;;;;;24.50;19.30;;;;;;;30.57;37.57;100444.94;5086222;28;20119;-63
2021/09/09 08:59:14;;;;;;;45.67;21.90;;;;;;;31.08;36.40;100444.69;5086153;28;20024;-63
2021/09/09 09:02:02;;;;;;;28.48;20.58;;;;;;;31.33;35.36;100438.81;5086007;28;20078;-63
2021/09/09 09:04:27;;;;;;;28.52;22.65;;;;;;;31.47;34.56;100441.00;5086002;28;20020;-64
2021/09/09 09:06:53;;;;;;;28.13;20.67;;;;;;;31.45;34.90;100444.84;5085954;28;20020;-63
2021/09/09 09:09:23;;;;;;;33.03;22.00;;;;;;;31.57;34.38;100435.56;5085996;28;20032;-64
2021/09/09 09:11:51;;;;;;;29.85;21.25;;;;;;;31.57;34.38;100432.06;5086093;28;20078;-64
2021/09/09 09:14:20;;;;;;;27.90;20.70;;;;;;;31.72;34.19;100430.56;5086095;28;20029;-64
2021/09/09 09:16:57;;;;;;;29.13;21.67;;;;;;;31.75;33.74;100429.41;5086122;28;20047;-64
2021/09/09 09:19:34;;;;;;;24.65;20.48;;;;;;;31.67;33.57;100432.84;5086017;28;20090;-64
2021/09/09 09:22:06;;;;;;;32.00;21.50;;;;;;;31.56;33.81;100431.22;5085906;28;20044;-63
2021/09/09 09:24:42;;;;;;;28.05;21.38;;;;;;;31.49;33.43;100432.78;5085717;28;20021;-64
2021/09/09 09:27:18;;;;;;;27.83;20.30;;;;;;;31.32;34.04;100435.28;5085811;28;20103;-64
2021/09/09 09:30:09;;;;;;;24.42;19.65;;;;;;;31.36;34.47;100436.66;5085916;28;20084;-63
2021/09/09 09:32:36;;;;;;;28.87;21.53;;;;;;;31.75;33.88;100434.75;5085930;28;20048;-63
2021/09/09 09:35:16;;;;;;;29.35;20.20;;;;;;;31.71;33.09;100433.38;5085789;28;20253;-64
2021/09/09 09:37:59;;;;;;;29.27;22.43;;;;;;;31.35;33.88;100434.97;5085074;28;20025;-63
2021/09/09 09:40:33;;;;;;;31.83;21.23;;;;;;;31.17;34.42;100432.22;5085291;28;20032;-63
2021/09/09 09:43:06;;;;;;;28.23;21.33;;;;;;;31.36;33.96;100430.47;5085683;28;20025;-64
2021/09/09 09:45:31;;;;;;;30.38;22.80;;;;;;;31.26;33.69;100435.88;5085677;28;20035;-63
2021/09/09 09:47:57;;;;;;;26.23;20.63;;;;;;;31.28;34.31;100437.41;5085625;28;20048;-64
2021/09/09 09:50:23;;;;;;;29.27;20.90;;;;;;;31.62;33.79;100422.56;5085340;28;20027;-65
2021/09/09 09:52:49;;;;;;;28.17;21.05;;;;;;;32.08;33.55;100421.69;5085791;28;20526;-64
2021/09/09 09:55:15;;;;;;;27.98;21.05;;;;;;;32.36;32.86;100426.09;5085515;28;20491;-63
2021/09/09 09:57:57;;;;;;;28.30;21.20;;;;;;;32.38;32.38;100416.88;5085619;28;20029;-64
2021/09/09 10:00:23;;;;;;;28.02;20.92;;;;;;;32.11;32.35;100413.31;5085518;28;20464;-63
2021/09/09 10:02:49;;;;;;;26.60;20.88;;;;;;;31.81;33.13;100418.03;5085420;28;20029;-63
2021/09/09 10:05:15;;;;;;;25.98;19.88;;;;;;;31.76;33.15;100414.97;5085547;28;20016;-63
2021/09/09 10:07:41;;;;;;;29.23;22.25;;;;;;;31.63;33.15;100421.56;5085686;28;20502;-64
2021/09/09 10:10:07;;;;;;;28.13;21.58;;;;;;;31.58;33.28;100417.66;5085272;28;20037;-63
2021/09/09 10:12:33;;;;;;;32.53;20.88;;;;;;;31.63;33.76;100415.38;5085350;28;20376;-63
2021/09/09 10:15:04;;;;;;;26.02;20.27;;;;;;;31.84;33.15;100412.38;5085364;28;20107;-63
2021/09/09 10:17:32;;;;;;;23.98;19.38;;;;;;;31.88;33.13;100413.78;5085281;28;20024;-62
2021/09/09 10:20:28;;;;;;;28.55;20.65;;;;;;;32.03;32.58;100416.78;5085110;28;20076;-64
2021/09/09 10:23:06;;;;;;;27.50;19.85;;;;;;;32.25;32.70;100416.47;5085178;28;20421;-63
2021/09/09 10:25:53;;;;;;;26.52;19.45;;;;;;;32.53;31.90;100419.03;5085230;28;20032;-64
2021/09/09 10:28:34;;;;;;;29.65;21.25;;;;;;;32.32;31.66;100412.13;5085419;28;20088;-64
2021/09/09 10:31:05;;;;;;;26.23;19.48;;;;;;;31.90;32.02;100421.66;5085311;28;20028;-64
2021/09/09 10:33:31;;;;;;;26.38;18.70;;;;;;;31.64;32.96;100409.00;5085362;28;20028;-64
2021/09/09 10:35:57;;;;;;;23.52;19.08;;;;;;;31.74;33.27;100412.44;5085305;28;20044;-64
2021/09/09 10:38:27;;;;;;;26.38;19.17;;;;;;;31.97;32.54;100413.84;5084884;28;20028;-64
2021/09/09 10:40:52;;;;;;;28.88;21.60;;;;;;;31.98;32.88;100407.50;5085269;28;20024;-65
2021/09/09 10:43:23;;;;;;;27.20;21.40;;;;;;;32.02;32.86;100406.19;5085075;28;20097;-65
2021/09/09 10:45:58;;;;;;;29.60;20.95;;;;;;;31.93;33.10;100410.63;5085158;28;20036;-65
2021/09/09 10:48:24;;;;;;;31.88;23.00;;;;;;;31.78;33.28;100407.63;5085651;28;20036;-63
2021/09/09 10:51:29;;;;;;;32.78;22.42;;;;;;;31.63;33.45;100407.31;5088469;28;20025;-64
2021/09/09 10:53:56;;;;;;;27.17;22.70;;;;;;;31.36;34.44;100403.66;5084365;28;20071;-64
2021/09/09 10:56:24;;;;;;;27.05;21.20;;;;;;;31.27;34.17;100408.06;5088908;28;20025;-64
2021/09/09 10:59:19;;;;;;;32.97;22.17;;;;;;;31.08;34.70;100401.81;5088891;28;20025;-64
2021/09/09 11:01:45;;;;;;;27.80;21.83;;;;;;;30.95;35.08;100398.59;5088738;28;20024;-64
2021/09/09 11:04:29;;;;;;;27.48;21.05;;;;;;;30.97;34.84;100400.16;5088424;28;20048;-63
2021/09/09 11:06:55;;;;;;;28.77;20.33;;;;;;;31.14;34.65;100403.03;5088543;28;20021;-64